Time;durP1;ratioP1;P1;durP2;ratioP2;P2;SDS_P1;SDS_P2;PMS_P1;PMS_P2;Temp;Humidity;BMP_temperature;BMP_pressure;BME280_temperature;BME280_humidity;BME280_pressure;Samples;Min_cycle;Max_cycle;Signal;HPM_P1;HPM_P2
2021/05/10 00:00:32;;;;;;;1.40;1.20;;;;;;;20.00;43.37;99557.50;5012121;28;20209;-68
2021/05/10 00:02:58;;;;;;;3.10;1.20;;;;;;;19.96;43.66;99556.16;5010374;28;20691;-67
2021/05/10 00:05:24;;;;;;;1.47;1.33;;;;;;;19.91;43.57;99555.03;5011770;28;20229;-68
2021/05/10 00:07:50;;;;;;;2.47;1.50;;;;;;;19.84;43.79;99549.53;5012066;28;20210;-68
2021/05/10 00:10:16;;;;;;;2.30;1.60;;;;;;;19.80;43.85;99548.22;5011273;28;20201;-68
2021/05/10 00:12:43;;;;;;;1.93;1.30;;;;;;;19.74;44.12;99549.78;5010725;28;20233;-68
2021/05/10 00:15:11;;;;;;;1.93;1.37;;;;;;;19.70;44.21;99547.66;5011282;28;20676;-68
2021/05/10 00:17:37;;;;;;;1.40;1.30;;;;;;;19.64;44.28;99551.91;5011997;28;20201;-68
2021/05/10 00:20:04;;;;;;;1.77;1.37;;;;;;;19.61;44.50;99546.03;5010614;28;20209;-68
2021/05/10 00:22:30;;;;;;;1.63;1.40;;;;;;;19.54;44.63;99545.91;5010617;28;20616;-68
2021/05/10 00:24:56;;;;;;;3.40;1.63;;;;;;;19.51;44.88;99549.00;5010622;28;20229;-68
2021/05/10 00:27:22;;;;;;;3.57;1.53;;;;;;;19.45;45.07;99546.97;5011291;28;20286;-68
2021/05/10 00:29:49;;;;;;;2.07;1.47;;;;;;;19.41;45.33;99551.06;5004422;28;20669;-68
2021/05/10 00:32:15;;;;;;;1.30;1.20;;;;;;;19.35;45.39;99541.81;5010231;28;20236;-68
2021/05/10 00:34:40;;;;;;;1.70;1.20;;;;;;;19.32;45.76;99558.38;5009436;28;20209;-68
2021/05/10 00:37:06;;;;;;;2.50;1.57;;;;;;;19.28;46.06;99542.72;5001595;28;20241;-68
2021/05/10 00:39:32;;;;;;;2.40;1.50;;;;;;;19.24;46.10;99539.53;5008099;28;20396;-68
2021/05/10 00:41:58;;;;;;;2.33;1.20;;;;;;;19.21;46.18;99533.66;5006350;28;20781;-68
2021/05/10 00:44:24;;;;;;;1.67;1.20;;;;;;;19.17;46.25;99538.56;5011232;28;20228;-68
2021/05/10 00:46:53;;;;;;;1.93;1.30;;;;;;;19.13;46.15;99544.50;5010181;28;20798;-68
2021/05/10 00:49:18;;;;;;;2.30;1.50;;;;;;;19.08;46.17;99539.66;5004946;28;20292;-68
2021/05/10 00:51:44;;;;;;;3.10;1.20;;;;;;;19.04;46.01;99538.31;5007146;28;20260;-68
2021/05/10 00:54:10;;;;;;;5.37;1.40;;;;;;;19.02;45.80;99530.41;5005520;28;20204;-68
2021/05/10 00:56:37;;;;;;;2.30;1.30;;;;;;;19.01;45.71;99533.28;5006169;28;20273;-68
2021/05/10 00:59:03;;;;;;;2.60;1.10;;;;;;;19.01;45.79;99541.38;5011227;28;20205;-68
2021/05/10 01:01:29;;;;;;;2.47;1.23;;;;;;;18.99;46.02;99532.59;5010081;28;20219;-67
2021/05/10 01:03:56;;;;;;;1.90;1.10;;;;;;;18.96;46.09;99536.53;5009979;28;20299;-68
2021/05/10 01:06:22;;;;;;;3.37;1.20;;;;;;;18.94;46.17;99535.03;5009720;28;20204;-68
2021/05/10 01:08:48;;;;;;;2.03;1.40;;;;;;;18.91;46.28;99538.91;5001795;28;20219;-68
2021/05/10 01:11:15;;;;;;;2.37;1.30;;;;;;;18.89;46.37;99535.53;5010636;28;20767;-69
2021/05/10 01:13:41;;;;;;;3.07;1.50;;;;;;;18.86;46.31;99525.09;5010262;28;20597;-68
2021/05/10 01:16:07;;;;;;;1.10;1.00;;;;;;;18.84;46.50;99526.28;5011113;28;20213;-68
2021/05/10 01:18:34;;;;;;;1.93;1.40;;;;;;;18.82;46.81;99533.72;5008851;28;20204;-68
2021/05/10 01:21:03;;;;;;;3.07;1.63;;;;;;;18.79;47.06;99537.63;5010701;28;20241;-69
2021/05/10 01:23:30;;;;;;;1.50;1.40;;;;;;;18.75;47.25;99547.09;5009880;28;20230;-68
2021/05/10 01:25:57;;;;;;;2.47;1.40;;;;;;;18.70;47.81;99541.38;5010776;28;20596;-69
2021/05/10 01:28:24;;;;;;;2.53;1.50;;;;;;;18.65;48.10;99544.59;5009941;28;20589;-68
2021/05/10 01:30:50;;;;;;;2.07;1.50;;;;;;;18.59;48.22;99537.22;5009089;28;20234;-67
2021/05/10 01:33:19;;;;;;;1.67;1.57;;;;;;;18.54;48.25;99539.56;5010111;28;20209;-68
2021/05/10 01:35:47;;;;;;;2.83;1.83;;;;;;;18.48;48.56;99537.56;5010510;28;20663;-67
2021/05/10 01:38:14;;;;;;;3.07;1.70;;;;;;;18.45;48.68;99545.19;5008998;28;20215;-67
2021/05/10 01:40:46;;;;;;;1.77;1.43;;;;;;;18.38;48.81;99543.16;5009673;28;20757;-67
2021/05/10 01:43:15;;;;;;;2.00;1.80;;;;;;;18.34;49.00;99543.69;5009104;28;20210;-67
2021/05/10 01:45:41;;;;;;;2.43;1.70;;;;;;;18.29;49.17;99543.34;5009120;28;20235;-67
2021/05/10 01:48:09;;;;;;;2.63;1.50;;;;;;;18.25;49.51;99547.44;5010130;28;20704;-67
2021/05/10 01:50:36;;;;;;;1.60;1.50;;;;;;;18.21;49.70;99554.16;5009647;28;20200;-68
2021/05/10 01:53:03;;;;;;;3.00;1.97;;;;;;;18.18;49.84;99565.28;5010087;28;20205;-68
2021/05/10 01:55:29;;;;;;;1.80;1.70;;;;;;;18.16;50.18;99564.63;5013200;28;20210;-67
2021/05/10 01:57:57;;;;;;;1.93;1.63;;;;;;;18.12;50.22;99572.19;5014026;28;20215;-68
2021/05/10 02:00:26;;;;;;;3.33;2.10;;;;;;;18.02;50.53;99571.56;5012707;28;20213;-67
2021/05/10 02:02:52;;;;;;;2.03;1.90;;;;;;;17.89;50.89;99577.47;5010853;28;20228;-68
2021/05/10 02:05:19;;;;;;;2.03;1.63;;;;;;;17.77;51.52;99581.50;5014180;28;20223;-68
2021/05/10 02:07:47;;;;;;;2.67;1.77;;;;;;;17.65;51.99;99577.47;5003660;28;20623;-67
2021/05/10 02:10:16;;;;;;;1.90;1.60;;;;;;;17.57;52.35;99583.66;5009392;28;20694;-68
2021/05/10 02:12:51;;;;;;;4.80;1.90;;;;;;;17.52;52.77;99586.03;5011714;28;20229;-68
2021/05/10 02:15:18;;;;;;;2.33;1.97;;;;;;;17.49;53.10;99588.22;5014511;28;20210;-67
2021/05/10 02:17:44;;;;;;;3.03;1.60;;;;;;;17.45;53.34;99582.31;5013663;28;20802;-67
2021/05/10 02:20:11;;;;;;;1.67;1.57;;;;;;;17.44;53.53;99577.94;5012396;28;20200;-67
2021/05/10 02:22:37;;;;;;;2.27;1.60;;;;;;;17.43;53.64;99583.50;5013255;28;20235;-67
2021/05/10 02:25:04;;;;;;;2.53;1.90;;;;;;;17.43;53.71;99580.78;5012894;28;20226;-67
2021/05/10 02:27:30;;;;;;;2.80;1.90;;;;;;;17.41;53.97;99580.97;5013645;28;20766;-67
2021/05/10 02:29:56;;;;;;;2.10;1.90;;;;;;;17.40;54.00;99579.28;5010988;28;20296;-67
2021/05/10 02:32:23;;;;;;;2.23;1.93;;;;;;;17.40;53.92;99578.44;5012554;28;20237;-68
2021/05/10 02:34:49;;;;;;;2.13;1.60;;;;;;;17.40;53.89;99578.44;5007742;28;20204;-67
2021/05/10 02:37:18;;;;;;;2.70;1.87;;;;;;;17.39;53.91;99574.91;5013002;28;20209;-67
2021/05/10 02:39:44;;;;;;;3.03;1.60;;;;;;;17.38;53.95;99581.28;5013308;28;20214;-68
2021/05/10 02:42:10;;;;;;;2.20;1.83;;;;;;;17.35;54.27;99579.78;5007666;28;20737;-68
2021/05/10 02:44:36;;;;;;;3.60;1.50;;;;;;;17.32;54.29;99577.44;5027294;28;20235;-68
2021/05/10 02:47:02;;;;;;;2.10;1.90;;;;;;;17.30;54.27;99582.13;5022055;28;20209;-68
2021/05/10 02:49:29;;;;;;;4.63;1.77;;;;;;;17.30;54.16;99590.22;5012928;28;20258;-68
2021/05/10 02:51:55;;;;;;;1.83;1.60;;;;;;;17.29;54.18;99587.69;5011427;28;20778;-68
2021/05/10 02:54:21;;;;;;;4.23;1.47;;;;;;;17.28;54.11;99591.38;5012879;28;20291;-68
2021/05/10 02:56:47;;;;;;;3.40;1.83;;;;;;;17.27;53.99;99581.63;5012545;28;20213;-68
2021/05/10 02:59:13;;;;;;;1.70;1.60;;;;;;;17.28;53.75;99586.84;5009628;28;20580;-67
2021/05/10 03:01:39;;;;;;;2.37;1.80;;;;;;;17.30;53.75;99587.53;5012169;28;20320;-66
2021/05/10 03:04:05;;;;;;;2.43;1.67;;;;;;;17.32;54.17;99581.97;5012698;28;20708;-66
2021/05/10 03:06:32;;;;;;;2.27;1.80;;;;;;;17.30;54.34;99567.84;5010109;28;20207;-66
2021/05/10 03:08:58;;;;;;;3.17;1.80;;;;;;;17.25;54.70;99562.94;5012548;28;20204;-66
2021/05/10 03:11:24;;;;;;;4.23;1.80;;;;;;;17.16;55.38;99572.03;5012080;28;20242;-66
2021/05/10 03:13:50;;;;;;;3.73;2.03;;;;;;;17.07;55.67;99569.47;5011339;28;20749;-66
2021/05/10 03:16:16;;;;;;;2.33;2.07;;;;;;;17.00;56.24;99577.38;5012373;28;20224;-67
2021/05/10 03:18:42;;;;;;;2.73;1.93;;;;;;;16.93;56.52;99577.19;5012763;28;20250;-67
2021/05/10 03:21:08;;;;;;;2.50;1.60;;;;;;;16.89;56.96;99575.81;5011494;28;20258;-67
2021/05/10 03:23:35;;;;;;;2.73;2.20;;;;;;;16.85;57.42;99573.59;5011777;28;20205;-67
2021/05/10 03:26:00;;;;;;;2.80;2.10;;;;;;;16.79;57.42;99574.28;5012305;28;20251;-66
2021/05/10 03:28:26;;;;;;;2.20;1.83;;;;;;;16.73;57.54;99570.38;5012187;28;20683;-66
2021/05/10 03:30:53;;;;;;;4.13;2.00;;;;;;;16.68;57.92;99572.72;5012219;28;20227;-66
2021/05/10 03:33:19;;;;;;;2.57;2.00;;;;;;;16.64;58.11;99566.00;5011374;28;20210;-67
2021/05/10 03:35:45;;;;;;;4.43;1.80;;;;;;;16.63;58.25;99570.53;5012087;28;20205;-66
2021/05/10 03:38:11;;;;;;;2.20;2.00;;;;;;;16.59;58.44;99574.50;5011483;28;20247;-67
2021/05/10 03:40:38;;;;;;;2.43;2.13;;;;;;;16.60;58.49;99576.19;5012225;28;20302;-67
2021/05/10 03:43:04;;;;;;;2.23;2.00;;;;;;;16.60;58.79;99568.13;5008832;28;20225;-67
2021/05/10 03:45:30;;;;;;;4.33;2.23;;;;;;;16.60;58.77;99559.22;5009874;28;20228;-66
2021/05/10 03:47:56;;;;;;;2.63;2.00;;;;;;;16.59;59.13;99561.06;5005261;28;20211;-66
2021/05/10 03:50:23;;;;;;;3.90;2.30;;;;;;;16.57;59.09;99557.69;5011573;28;20222;-66
2021/05/10 03:52:50;;;;;;;2.10;1.90;;;;;;;16.56;59.33;99550.63;5010827;28;20209;-66
2021/05/10 03:55:18;;;;;;;3.33;1.87;;;;;;;16.56;59.42;99553.31;5011368;28;22416;-67
2021/05/10 03:57:45;;;;;;;3.00;2.10;;;;;;;16.57;59.56;99546.94;5011984;28;20210;-67
2021/05/10 04:00:13;;;;;;;3.50;1.70;;;;;;;16.62;59.35;99551.84;5010822;28;20204;-67
2021/05/10 04:02:40;;;;;;;2.10;1.60;;;;;;;16.69;58.84;99549.34;5010997;28;20230;-67
2021/05/10 04:05:13;;;;;;;3.30;1.70;;;;;;;16.79;58.19;99547.38;5009745;28;20223;-66
2021/05/10 04:07:47;;;;;;;3.63;1.93;;;;;;;16.91;57.53;99546.06;5010768;28;20621;-67
2021/05/10 04:15:48;;;;;;;5.03;1.63;;;;;;;17.33;56.08;99537.91;5002651;28;20723;-66
2021/05/10 04:18:14;;;;;;;3.53;1.60;;;;;;;17.46;55.73;99534.69;5011253;28;20220;-67
2021/05/10 04:20:40;;;;;;;3.37;2.20;;;;;;;17.56;55.45;99535.38;5007887;28;20218;-66
2021/05/10 04:23:06;;;;;;;2.70;2.13;;;;;;;17.62;55.17;99543.63;5008354;28;20235;-67
2021/05/10 04:25:32;;;;;;;2.30;1.80;;;;;;;17.69;55.09;99543.81;5009485;28;20597;-67
2021/05/10 04:27:58;;;;;;;2.03;1.67;;;;;;;17.73;55.06;99542.47;5004065;28;20282;-68
2021/05/10 04:30:26;;;;;;;1.70;1.50;;;;;;;17.79;55.00;99549.03;5008990;28;20670;-66
2021/05/10 04:32:57;;;;;;;2.37;1.57;;;;;;;17.82;54.73;99538.75;5005569;28;20938;-67
2021/05/10 04:35:23;;;;;;;3.03;1.80;;;;;;;17.87;54.67;99536.41;5005412;28;20200;-66
2021/05/10 04:37:49;;;;;;;2.93;1.77;;;;;;;17.91;54.57;99526.97;5009411;28;20208;-65
2021/05/10 04:40:16;;;;;;;4.43;1.67;;;;;;;17.96;54.55;99521.88;5009486;28;20206;-67
2021/05/10 04:42:42;;;;;;;2.77;1.93;;;;;;;18.01;54.63;99527.59;5008362;28;20245;-68
2021/05/10 04:45:09;;;;;;;1.80;1.63;;;;;;;18.04;54.33;99526.44;5008957;28;20324;-66
2021/05/10 04:47:38;;;;;;;2.63;1.70;;;;;;;18.08;54.36;99524.25;5008467;28;20236;-66
2021/05/10 04:50:06;;;;;;;4.50;2.10;;;;;;;18.10;54.42;99531.09;5009005;28;20212;-66
2021/05/10 04:52:32;;;;;;;2.93;1.97;;;;;;;18.14;54.48;99534.31;5008997;28;20230;-66
2021/05/10 04:54:58;;;;;;;2.97;1.70;;;;;;;18.18;54.50;99536.50;5009189;28;20199;-66
2021/05/10 04:57:24;;;;;;;2.63;1.80;;;;;;;18.23;54.52;99544.91;5009709;28;20305;-66
2021/05/10 04:59:50;;;;;;;1.67;1.50;;;;;;;18.29;54.32;99537.97;5009786;28;20651;-67
2021/05/10 05:02:16;;;;;;;2.70;1.47;;;;;;;18.35;54.09;99539.97;5008411;28;20307;-67
2021/05/10 05:04:43;;;;;;;1.70;1.60;;;;;;;18.42;54.15;99532.88;5007455;28;20238;-67
2021/05/10 05:07:09;;;;;;;1.73;1.63;;;;;;;18.48;54.09;99528.63;5009393;28;20211;-67
2021/05/10 05:09:35;;;;;;;4.90;2.00;;;;;;;18.54;54.10;99530.63;5010596;28;20217;-66
2021/05/10 05:12:01;;;;;;;2.90;1.73;;;;;;;18.60;53.81;99525.44;5009827;28;20714;-67
2021/05/10 05:14:27;;;;;;;2.80;1.53;;;;;;;18.66;53.80;99522.00;5008764;28;20294;-68
2021/05/10 05:16:54;;;;;;;2.50;1.70;;;;;;;18.71;53.73;99522.31;5007507;28;20203;-67
2021/05/10 05:19:20;;;;;;;2.43;1.67;;;;;;;18.77;53.61;99520.78;5008147;28;20214;-68
2021/05/10 05:21:47;;;;;;;2.80;1.90;;;;;;;18.81;53.56;99508.59;5009773;28;20230;-67
2021/05/10 05:24:13;;;;;;;1.83;1.47;;;;;;;18.85;53.53;99517.19;5019127;28;20215;-68
2021/05/10 05:26:39;;;;;;;3.33;1.60;;;;;;;18.89;53.44;99513.13;5021473;28;20219;-68
2021/05/10 05:29:05;;;;;;;2.20;1.60;;;;;;;18.90;53.40;99502.16;5022107;28;20657;-65
2021/05/10 05:31:31;;;;;;;3.77;1.90;;;;;;;18.93;53.11;99471.28;5022931;28;20220;-64
2021/05/10 05:33:57;;;;;;;3.03;1.77;;;;;;;18.98;53.98;99466.19;5023468;28;20263;-67
2021/05/10 05:36:23;;;;;;;2.40;1.63;;;;;;;19.01;54.83;99476.59;5018932;28;20211;-67
2021/05/10 05:38:50;;;;;;;1.70;1.60;;;;;;;19.00;55.44;99491.13;5021487;28;20269;-67
2021/05/10 05:41:16;;;;;;;2.73;1.90;;;;;;;18.98;55.56;99480.53;5019409;28;20227;-67
2021/05/10 05:43:42;;;;;;;2.67;1.83;;;;;;;18.94;55.54;99463.00;5013552;28;20207;-68
2021/05/10 05:46:13;;;;;;;2.70;1.70;;;;;;;18.92;55.29;99470.44;5009371;28;20272;-65
2021/05/10 05:48:39;;;;;;;4.30;1.90;;;;;;;18.90;55.09;99479.72;5010973;28;20227;-66
2021/05/10 05:51:05;;;;;;;2.43;1.90;;;;;;;18.89;55.25;99478.03;5012987;28;20282;-66
2021/05/10 05:53:31;;;;;;;2.10;1.90;;;;;;;18.90;55.00;99487.81;5011942;28;20215;-65
2021/05/10 05:56:00;;;;;;;5.93;1.87;;;;;;;18.91;55.07;99484.94;5013021;28;20720;-66
2021/05/10 05:58:26;;;;;;;5.40;1.80;;;;;;;18.91;54.84;99490.34;5011325;28;20212;-66
2021/05/10 06:00:53;;;;;;;2.03;1.60;;;;;;;18.94;54.55;99490.00;5008780;28;20710;-64
2021/05/10 06:03:19;;;;;;;3.50;1.60;;;;;;;18.99;54.09;99500.22;5005100;28;20215;-66
2021/05/10 06:05:45;;;;;;;2.40;1.40;;;;;;;19.04;53.87;99508.63;5008971;28;20229;-66
2021/05/10 06:08:11;;;;;;;3.03;1.83;;;;;;;19.09;53.60;99503.53;5009996;28;20223;-66
2021/05/10 06:10:37;;;;;;;4.30;1.70;;;;;;;19.15;53.31;99510.09;5009714;28;20205;-67
2021/05/10 06:13:04;;;;;;;2.73;1.60;;;;;;;19.20;53.26;99521.16;5016546;28;20570;-66
2021/05/10 06:15:30;;;;;;;2.70;1.90;;;;;;;19.25;52.75;99522.31;5008245;28;20207;-66
2021/05/10 06:17:56;;;;;;;2.83;2.00;;;;;;;19.32;54.16;99515.19;5009583;28;20208;-65
2021/05/10 06:20:24;;;;;;;3.80;2.13;;;;;;;19.42;56.09;99526.56;5008674;28;20213;-66
2021/05/10 06:22:50;;;;;;;3.23;2.00;;;;;;;19.46;56.27;99537.84;5008511;28;20291;-66
2021/05/10 06:25:16;;;;;;;2.50;1.80;;;;;;;19.45;55.99;99543.44;5006107;28;20228;-66
2021/05/10 06:27:43;;;;;;;3.70;1.80;;;;;;;19.42;56.39;99545.47;5007411;28;20223;-65
2021/05/10 06:30:12;;;;;;;2.67;1.90;;;;;;;19.43;56.36;99544.44;5007608;28;20208;-66
2021/05/10 06:32:38;;;;;;;4.03;1.60;;;;;;;19.45;56.28;99551.53;5007781;28;20225;-66
2021/05/10 06:35:06;;;;;;;1.90;1.60;;;;;;;19.47;55.90;99560.28;5009352;28;20294;-66
2021/05/10 06:37:34;;;;;;;2.33;1.97;;;;;;;19.49;55.44;99569.06;5009451;28;20214;-65
2021/05/10 06:40:00;;;;;;;4.57;2.43;;;;;;;19.53;55.62;99573.09;5008000;28;20339;-66
2021/05/10 06:42:26;;;;;;;3.20;2.10;;;;;;;19.58;55.73;99578.78;5009637;28;20230;-65
2021/05/10 06:44:53;;;;;;;5.40;2.03;;;;;;;19.62;55.90;99588.22;5011561;28;20232;-66
2021/05/10 06:47:20;;;;;;;3.23;2.20;;;;;;;19.66;56.09;99582.28;5011152;28;20215;-69
2021/05/10 06:49:46;;;;;;;3.40;2.43;;;;;;;19.71;56.16;99579.84;5007994;28;20216;-70
2021/05/10 06:52:13;;;;;;;3.00;1.80;;;;;;;19.76;55.56;99588.28;5009455;28;20220;-70
2021/05/10 06:54:39;;;;;;;2.30;1.50;;;;;;;19.83;55.30;99592.97;5010590;28;20258;-69
2021/05/10 06:57:06;;;;;;;2.40;1.73;;;;;;;19.88;55.12;99595.97;5010406;28;20212;-69
2021/05/10 06:59:32;;;;;;;3.73;1.90;;;;;;;19.94;55.29;99601.47;5010099;28;20675;-69
2021/05/10 07:01:58;;;;;;;3.87;1.70;;;;;;;20.01;55.35;99602.41;5008000;28;20228;-69
2021/05/10 07:04:25;;;;;;;2.30;1.90;;;;;;;20.10;55.69;99595.06;5009745;28;20233;-69
2021/05/10 07:06:51;;;;;;;2.67;2.07;;;;;;;20.20;56.10;99616.44;5009999;28;20232;-69
2021/05/10 07:09:17;;;;;;;3.47;1.90;;;;;;;20.28;55.79;99611.78;5009552;28;20579;-69
2021/05/10 07:11:43;;;;;;;2.83;2.00;;;;;;;20.34;55.51;99604.78;5009476;28;20259;-68
2021/05/10 07:14:09;;;;;;;3.30;1.80;;;;;;;20.39;54.65;99605.94;5010299;28;20220;-69
2021/05/10 07:16:35;;;;;;;3.90;1.70;;;;;;;20.44;54.38;99608.06;5011293;28;20256;-69
2021/05/10 07:19:01;;;;;;;3.97;1.70;;;;;;;20.50;53.53;99618.16;5011335;28;20991;-69
2021/05/10 07:21:28;;;;;;;2.00;1.77;;;;;;;20.59;53.36;99649.53;5010966;28;20325;-69
2021/05/10 07:23:54;;;;;;;3.23;1.70;;;;;;;20.64;52.71;99668.72;5010800;28;20656;-69
2021/05/10 07:26:20;;;;;;;2.57;1.40;;;;;;;20.65;51.17;99662.28;5008960;28;20225;-68
2021/05/10 07:28:46;;;;;;;2.37;1.70;;;;;;;20.67;50.43;99665.66;5010917;28;20627;-69
2021/05/10 07:31:12;;;;;;;2.00;1.43;;;;;;;20.72;49.86;99679.47;5009823;28;20224;-69
2021/05/10 07:33:38;;;;;;;1.87;1.50;;;;;;;20.77;49.16;99685.19;5009954;28;20738;-69
2021/05/10 07:36:05;;;;;;;1.70;1.60;;;;;;;20.85;48.79;99689.63;5009912;28;20197;-69
2021/05/10 07:38:31;;;;;;;3.10;1.70;;;;;;;20.90;48.79;99689.09;5010455;28;20560;-69
2021/05/10 07:40:58;;;;;;;2.87;1.73;;;;;;;20.97;48.30;99669.19;5038091;22;20232;-76
2021/05/10 07:43:24;;;;;;;2.80;1.50;;;;;;;21.03;48.16;99689.25;5038732;28;20686;-73
2021/05/10 07:45:50;;;;;;;3.20;1.53;;;;;;;21.09;48.05;99685.81;5036515;28;20224;-73
2021/05/10 07:48:16;;;;;;;1.57;1.30;;;;;;;21.16;47.83;99673.19;5033063;28;20219;-73
2021/05/10 07:50:42;;;;;;;2.37;1.50;;;;;;;21.24;47.56;99681.25;5034388;28;20214;-74
2021/05/10 07:53:09;;;;;;;2.03;1.50;;;;;;;21.32;47.40;99683.00;5030527;28;20204;-74
2021/05/10 07:55:36;;;;;;;3.23;1.37;;;;;;;21.41;47.28;99681.88;5033316;28;20202;-73
2021/05/10 07:58:03;;;;;;;3.10;1.63;;;;;;;21.48;47.19;99680.94;5035612;28;20285;-73
2021/05/10 08:00:31;;;;;;;3.27;1.70;;;;;;;21.58;47.11;99677.06;5043767;28;20593;-73
2021/05/10 08:03:05;;;;;;;1.53;1.43;;;;;;;21.67;46.96;99686.75;5041580;28;20632;-73
2021/05/10 08:05:31;;;;;;;4.33;1.67;;;;;;;21.74;46.94;99672.22;5041964;28;20345;-74
2021/05/10 08:07:57;;;;;;;1.67;1.50;;;;;;;21.83;46.73;99670.25;5035425;28;20211;-75
2021/05/10 08:10:23;;;;;;;1.90;1.70;;;;;;;21.90;46.39;99668.44;5034057;28;20200;-73
2021/05/10 08:12:50;;;;;;;5.23;1.93;;;;;;;21.96;46.12;99664.94;5032552;28;20219;-75
2021/05/10 08:15:16;;;;;;;2.10;1.48;;;;;;;22.03;45.75;99663.19;5043339;28;20256;-75
2021/05/10 08:17:42;;;;;;;1.70;1.55;;;;;;;22.09;45.46;99665.09;5039724;28;20264;-73
2021/05/10 08:20:09;;;;;;;3.37;1.50;;;;;;;22.13;44.90;99663.69;5037501;28;20202;-74
2021/05/10 08:22:35;;;;;;;3.13;1.42;;;;;;;22.19;44.77;99664.78;5032014;28;20229;-74
2021/05/10 08:25:03;;;;;;;2.38;1.33;;;;;;;22.27;44.67;99663.78;5034394;28;20221;-75
2021/05/10 08:27:29;;;;;;;3.65;1.50;;;;;;;22.35;44.45;99667.19;5035527;28;20287;-75
2021/05/10 08:29:56;;;;;;;3.10;1.50;;;;;;;22.44;44.10;99670.59;5037877;28;20217;-74
2021/05/10 08:32:22;;;;;;;2.53;1.58;;;;;;;22.51;43.84;99658.75;5034293;28;20727;-73
2021/05/10 08:34:48;;;;;;;1.38;1.27;;;;;;;22.60;43.38;99659.44;5033101;28;20264;-73
2021/05/10 08:37:16;;;;;;;3.35;1.60;;;;;;;22.67;43.20;99663.03;5038563;28;20225;-73
2021/05/10 08:39:42;;;;;;;2.35;1.20;;;;;;;22.75;43.11;99673.72;5042545;28;20679;-73
2021/05/10 08:42:08;;;;;;;4.70;1.30;;;;;;;22.83;42.75;99668.19;5044541;28;20240;-73
2021/05/10 08:44:34;;;;;;;2.67;1.70;;;;;;;22.93;42.78;99667.00;5038781;28;20203;-66
2021/05/10 08:47:01;;;;;;;1.38;1.25;;;;;;;23.06;42.53;99667.88;5035044;28;20301;-66
2021/05/10 08:49:27;;;;;;;1.45;1.33;;;;;;;23.16;42.47;99665.63;5035924;28;20213;-68
2021/05/10 08:51:53;;;;;;;2.10;1.38;;;;;;;23.25;42.21;99660.88;5026594;28;21350;-68
2021/05/10 08:54:24;;;;;;;2.65;1.30;;;;;;;23.37;42.18;99652.97;5035436;28;20224;-68
2021/05/10 08:56:50;;;;;;;4.60;1.65;;;;;;;23.45;41.30;99642.75;5032374;28;20624;-68
2021/05/10 08:59:18;;;;;;;1.83;1.20;;;;;;;23.52;41.13;99646.34;5037878;28;20255;-69
2021/05/10 09:01:52;;;;;;;3.17;1.30;;;;;;;23.57;41.02;99637.59;5033736;28;20225;-68
2021/05/10 09:04:27;;;;;;;1.80;1.60;;;;;;;23.67;41.29;99653.50;5037153;28;20256;-67
2021/05/10 09:07:10;;;;;;;1.67;1.30;;;;;;;23.75;41.01;99647.88;5041678;28;20193;-68
2021/05/10 09:09:50;;;;;;;2.72;1.08;;;;;;;23.83;41.45;99650.38;5044634;28;20206;-68
2021/05/10 09:12:16;;;;;;;3.10;1.20;;;;;;;23.87;40.87;99638.06;5036749;28;20241;-68
2021/05/10 09:14:42;;;;;;;1.70;1.40;;;;;;;23.94;41.16;99638.91;5044754;28;20228;-67
2021/05/10 09:17:09;;;;;;;2.95;1.40;;;;;;;24.08;40.57;99651.47;5045772;28;20658;-68
2021/05/10 09:19:44;;;;;;;2.00;1.40;;;;;;;24.26;40.37;99656.31;5042957;28;20205;-67
2021/05/10 09:22:11;;;;;;;1.98;1.30;;;;;;;24.37;40.26;99655.66;5042545;28;20236;-68
2021/05/10 09:24:49;;;;;;;1.33;1.23;;;;;;;24.51;41.20;99664.69;5040047;28;20205;-68
2021/05/10 09:27:24;;;;;;;3.97;1.67;;;;;;;24.65;41.41;99674.50;5045170;28;20244;-68
2021/05/10 09:29:51;;;;;;;2.40;1.40;;;;;;;24.75;41.11;99664.00;5046643;28;20247;-67
2021/05/10 09:32:28;;;;;;;6.60;1.90;;;;;;;24.83;40.94;99649.31;5044562;28;20225;-68
2021/05/10 09:35:16;;;;;;;3.13;1.40;;;;;;;24.90;40.00;99644.72;5044696;28;20209;-68
2021/05/10 09:37:43;;;;;;;3.50;1.30;;;;;;;24.96;39.30;99645.75;5039071;28;20671;-68
2021/05/10 09:40:10;;;;;;;3.28;1.70;;;;;;;25.08;39.36;99641.31;5040112;28;20206;-68
2021/05/10 09:42:48;;;;;;;2.00;1.58;;;;;;;25.22;38.96;99648.38;5045381;28;20710;-67
2021/05/10 09:45:28;;;;;;;3.42;1.67;;;;;;;25.36;38.22;99630.91;5044692;28;20227;-68
2021/05/10 09:48:10;;;;;;;2.03;1.38;;;;;;;25.48;37.44;99625.59;5043701;28;20197;-68
2021/05/10 09:50:39;;;;;;;2.80;1.23;;;;;;;25.59;38.25;99633.09;5050033;28;20660;-69
2021/05/10 09:53:07;;;;;;;3.95;1.63;;;;;;;25.75;38.16;99623.59;5048732;28;20235;-67
2021/05/10 09:55:44;;;;;;;3.67;1.83;;;;;;;25.97;39.05;99640.44;5045275;28;20198;-68
2021/05/10 09:58:10;;;;;;;2.08;1.30;;;;;;;26.21;38.21;99656.81;5050469;28;20200;-68
2021/05/10 10:00:38;;;;;;;1.90;1.40;;;;;;;26.36;37.92;99642.84;5045750;28;20285;-68
2021/05/10 10:03:05;;;;;;;2.35;1.52;;;;;;;26.49;37.73;99641.91;5039563;28;20229;-67
2021/05/10 10:05:33;;;;;;;2.13;1.48;;;;;;;26.61;37.13;99640.09;5033520;28;20225;-69
2021/05/10 10:08:00;;;;;;;2.35;1.38;;;;;;;26.71;36.56;99642.28;5038964;28;20223;-69
2021/05/10 10:10:26;;;;;;;5.00;1.30;;;;;;;26.82;36.86;99639.66;5036259;28;20202;-68
2021/05/10 10:12:52;;;;;;;2.08;1.15;;;;;;;26.89;36.32;99626.75;5040762;28;20604;-68
2021/05/10 10:15:18;;;;;;;2.42;1.50;;;;;;;26.96;36.61;99635.75;5040650;28;20202;-67
2021/05/10 10:17:46;;;;;;;2.03;1.67;;;;;;;27.04;35.94;99644.72;5039022;28;20250;-68
2021/05/10 10:20:13;;;;;;;2.88;1.50;;;;;;;27.04;35.73;99639.25;5050531;28;20212;-69
2021/05/10 10:22:39;;;;;;;2.30;1.50;;;;;;;27.06;34.91;99650.75;5044457;28;20221;-68
2021/05/10 10:25:09;;;;;;;2.08;1.38;;;;;;;27.12;35.15;99649.84;5052382;28;20286;-68
2021/05/10 10:27:36;;;;;;;2.55;1.63;;;;;;;27.17;34.78;99647.28;5041221;28;20210;-68
2021/05/10 10:30:05;;;;;;;4.22;1.67;;;;;;;27.18;35.13;99647.06;5051942;28;20197;-68
2021/05/10 10:32:31;;;;;;;3.28;1.70;;;;;;;27.21;35.03;99651.22;5045211;28;20226;-68
2021/05/10 10:34:59;;;;;;;4.70;1.40;;;;;;;27.25;34.52;99641.47;5053289;28;20205;-68
2021/05/10 10:37:25;;;;;;;2.63;1.60;;;;;;;27.28;34.06;99625.47;5051260;28;20206;-68
2021/05/10 10:39:53;;;;;;;1.55;1.25;;;;;;;27.34;33.66;99615.50;5053283;28;20209;-68
2021/05/10 10:42:24;;;;;;;2.47;1.60;;;;;;;27.41;34.16;99626.38;5048275;28;20238;-69
2021/05/10 10:44:55;;;;;;;1.55;1.20;;;;;;;27.51;34.01;99627.47;5043964;28;20244;-68
2021/05/10 10:47:43;;;;;;;4.88;1.70;;;;;;;27.62;33.74;99629.44;5044960;28;20201;-68
2021/05/10 10:50:10;;;;;;;1.38;1.33;;;;;;;27.65;32.92;99634.44;5052801;28;20201;-68
2021/05/10 10:52:47;;;;;;;1.50;1.23;;;;;;;27.65;33.37;99639.91;5052638;28;20217;-68
2021/05/10 10:55:22;;;;;;;4.05;1.58;;;;;;;27.69;33.09;99643.03;5051616;28;20594;-69
2021/05/10 10:57:50;;;;;;;2.65;1.40;;;;;;;27.62;32.20;99645.00;5053190;28;20671;-69
2021/05/10 11:00:18;;;;;;;2.70;1.67;;;;;;;27.55;32.49;99645.09;5050714;28;20217;-68
2021/05/10 11:02:46;;;;;;;2.20;1.45;;;;;;;27.57;32.70;99643.00;5051924;28;20240;-68
2021/05/10 11:05:14;;;;;;;4.03;1.40;;;;;;;27.69;32.87;99642.19;5044368;28;20782;-68
2021/05/10 11:07:57;;;;;;;2.50;1.20;;;;;;;27.84;33.26;99656.28;5045283;28;20301;-68
2021/05/10 11:10:44;;;;;;;2.50;1.42;;;;;;;27.87;32.51;99653.06;5049584;28;20205;-69
2021/05/10 11:13:36;;;;;;;4.35;1.40;;;;;;;27.82;32.26;99667.44;5040417;28;20205;-68
2021/05/10 11:16:03;;;;;;;1.63;1.10;;;;;;;27.78;31.95;99670.88;5043945;28;20201;-68
2021/05/10 11:18:43;;;;;;;2.17;1.20;;;;;;;27.68;32.12;99676.09;5048217;28;20624;-68
2021/05/10 11:21:25;;;;;;;3.80;1.30;;;;;;;27.63;32.35;99680.34;5043477;28;20222;-68
2021/05/10 11:23:52;;;;;;;2.50;1.10;;;;;;;27.64;32.65;99671.06;5044106;28;20670;-68
2021/05/10 11:26:37;;;;;;;3.10;1.45;;;;;;;27.67;32.63;99666.22;5050516;28;20236;-68
2021/05/10 11:29:05;;;;;;;3.10;1.08;;;;;;;27.70;32.52;99668.50;5040548;28;20206;-68
2021/05/10 11:31:34;;;;;;;2.50;1.00;;;;;;;27.76;32.72;99681.25;5046962;28;20313;-68
2021/05/10 11:34:06;;;;;;;1.58;1.20;;;;;;;27.83;32.69;99688.28;5047324;28;20202;-68
2021/05/10 11:36:33;;;;;;;3.65;1.08;;;;;;;27.86;32.46;99686.97;5049774;28;20202;-68
2021/05/10 11:39:00;;;;;;;4.28;0.98;;;;;;;27.89;32.71;99690.09;5047719;28;20656;-68
2021/05/10 11:41:28;;;;;;;3.00;1.10;;;;;;;27.95;32.47;99680.09;5043635;28;20236;-67